Ambleside, United Kingdom
Current Conditions -  °F | °C
As of 9:50 AM on Monday 26 Jan 2015 (Local Time) from EGOM Reporting Station
Rain Showers Rain Showers  
Wind Chill: 27°   Ceiling: 2200
Heat Index: 37°   Visibility: 6mi
Dew Point: 36°   Wind: 22mph
Humidity: 93%   Direction: 260°W
Pressure: 30.03"   Gusts: NA
Location:  54.43°N, 2.96°W
Report Text: EGOM 260950Z 26019KT 9999 -SHRA FEW005 BKN022 03/02 Q1017 WHT
Loading
Personal Weather Stations






























Interactive Weather Map New forecast layout! Learn more

10-Day Weather Forecast

Advertisements
Track Severe Weather on mobile